createdAt,value
2019-03-27T00:00:20.540Z,3.50
2019-03-27T00:02:51.143Z,3.27
2019-03-27T00:05:21.959Z,4.23
2019-03-27T00:07:52.211Z,3.87
2019-03-27T00:10:22.488Z,3.20
2019-03-27T00:12:52.804Z,3.40
2019-03-27T00:15:23.060Z,3.50
2019-03-27T00:17:53.309Z,4.00
2019-03-27T00:20:23.590Z,3.80
2019-03-27T00:22:53.865Z,3.17
2019-03-27T00:25:24.127Z,2.90
2019-03-27T00:27:54.377Z,3.37
2019-03-27T00:30:24.625Z,2.97
2019-03-27T00:32:54.876Z,3.50
2019-03-27T00:35:25.147Z,3.10
2019-03-27T00:37:55.394Z,3.47
2019-03-27T00:40:25.667Z,3.20
2019-03-27T00:42:55.986Z,3.00
2019-03-27T00:45:27.201Z,3.47
2019-03-27T00:47:57.666Z,3.23
2019-03-27T00:50:27.907Z,3.60
2019-03-27T00:52:58.186Z,4.10
2019-03-27T00:55:28.538Z,4.33
2019-03-27T00:57:58.770Z,3.53
2019-03-27T01:00:44.626Z,3.73
2019-03-27T01:03:14.902Z,4.20
2019-03-27T01:05:45.146Z,4.30
2019-03-27T01:08:15.433Z,4.27
2019-03-27T01:10:45.678Z,5.40
2019-03-27T01:13:15.965Z,4.07
2019-03-27T01:15:46.583Z,4.80
2019-03-27T01:18:16.840Z,4.77
2019-03-27T01:20:47.131Z,4.13
2019-03-27T01:23:17.409Z,4.50
2019-03-27T01:25:47.660Z,4.07
2019-03-27T01:28:18.206Z,4.00
2019-03-27T01:30:48.488Z,4.00
2019-03-27T01:33:19.081Z,4.47
2019-03-27T01:35:49.328Z,4.60
2019-03-27T01:38:19.608Z,5.97
2019-03-27T01:40:49.878Z,5.20
2019-03-27T01:43:20.156Z,4.77
2019-03-27T01:45:53.316Z,4.27
2019-03-27T01:48:23.996Z,4.87
2019-03-27T01:50:54.253Z,4.73
2019-03-27T01:53:24.507Z,4.60
2019-03-27T01:55:54.755Z,4.63
2019-03-27T01:58:25.038Z,5.60
2019-03-27T02:00:55.315Z,4.70
2019-03-27T02:03:25.559Z,4.90
2019-03-27T02:05:55.838Z,5.00
2019-03-27T02:08:26.082Z,4.90
2019-03-27T02:10:56.366Z,4.90
2019-03-27T02:13:29.323Z,5.20
2019-03-27T02:16:06.632Z,5.40
2019-03-27T02:18:31.700Z,4.80
2019-03-27T02:21:02.228Z,3.93
2019-03-27T02:23:32.464Z,3.87
2019-03-27T02:26:04.400Z,4.93
2019-03-27T02:28:34.636Z,4.43
2019-03-27T02:31:04.970Z,4.40
2019-03-27T02:33:35.243Z,3.90
2019-03-27T02:36:05.651Z,3.80
2019-03-27T02:38:35.898Z,4.00
2019-03-27T02:41:06.176Z,3.90
2019-03-27T02:43:36.450Z,3.80
2019-03-27T02:46:23.258Z,3.57
2019-03-27T02:48:38.820Z,3.77
2019-03-27T02:51:09.082Z,3.93
2019-03-27T02:53:39.332Z,3.20
2019-03-27T02:56:09.616Z,3.73
2019-03-27T02:58:39.894Z,3.37
2019-03-27T03:01:10.163Z,3.70
2019-03-27T03:03:40.393Z,4.00
2019-03-27T03:06:10.647Z,3.63
2019-03-27T03:08:40.938Z,4.20
2019-03-27T03:11:11.209Z,4.83
2019-03-27T03:13:41.453Z,4.40
2019-03-27T03:16:11.712Z,5.10
2019-03-27T03:18:41.989Z,4.70
2019-03-27T03:21:14.951Z,5.40
2019-03-27T03:23:45.228Z,5.63
2019-03-27T03:26:15.475Z,5.37
2019-03-27T03:28:45.729Z,5.23
2019-03-27T03:31:16.199Z,5.20
2019-03-27T03:33:46.531Z,5.17
2019-03-27T03:36:16.775Z,5.33
2019-03-27T03:38:47.029Z,6.37
2019-03-27T03:41:17.303Z,6.50
2019-03-27T03:43:47.809Z,7.07
2019-03-27T03:46:18.141Z,7.13
2019-03-27T03:48:48.496Z,7.40
2019-03-27T03:51:18.726Z,6.93
2019-03-27T03:53:48.984Z,6.83
2019-03-27T03:56:19.248Z,6.97
2019-03-27T03:58:49.492Z,8.93
2019-03-27T04:01:20.146Z,8.03
2019-03-27T04:03:50.399Z,8.57
2019-03-27T04:06:20.652Z,8.90
2019-03-27T04:08:50.906Z,8.37
2019-03-27T04:11:21.168Z,9.70
2019-03-27T04:13:51.446Z,9.30
2019-03-27T04:16:21.728Z,9.87
2019-03-27T04:18:52.002Z,9.43
2019-03-27T04:21:22.240Z,9.87
2019-03-27T04:23:52.495Z,10.40
2019-03-27T04:26:23.042Z,10.13
2019-03-27T04:28:53.315Z,9.87
2019-03-27T04:31:23.573Z,9.73
2019-03-27T04:33:53.853Z,9.60
2019-03-27T04:36:24.129Z,9.90
2019-03-27T04:38:55.145Z,11.20
2019-03-27T04:41:25.398Z,9.83
2019-03-27T04:43:55.695Z,10.53
2019-03-27T04:46:25.979Z,11.03
2019-03-27T04:48:56.538Z,11.77
2019-03-27T04:51:26.830Z,11.40
2019-03-27T04:53:57.083Z,10.97
2019-03-27T04:56:27.367Z,10.50
2019-03-27T04:58:59.370Z,11.33
2019-03-27T05:01:30.582Z,11.77
2019-03-27T05:04:01.512Z,11.73
2019-03-27T05:06:32.054Z,12.47
2019-03-27T05:09:02.302Z,12.97
2019-03-27T05:11:32.559Z,11.77
2019-03-27T05:14:02.850Z,11.83
2019-03-27T05:16:33.399Z,12.27
2019-03-27T05:19:03.939Z,12.13
2019-03-27T05:21:34.191Z,12.40
2019-03-27T05:24:04.435Z,12.93
2019-03-27T05:26:36.342Z,12.87
2019-03-27T05:29:08.558Z,13.20
2019-03-27T05:31:38.834Z,12.77
2019-03-27T05:34:09.115Z,14.30
2019-03-27T05:36:39.860Z,12.83
2019-03-27T05:39:10.111Z,13.63
2019-03-27T05:41:40.397Z,13.13
2019-03-27T05:44:10.643Z,13.53
2019-03-27T05:46:40.900Z,12.70
2019-03-27T05:49:11.238Z,12.63
2019-03-27T05:51:41.527Z,12.83
2019-03-27T05:54:11.773Z,12.30
2019-03-27T05:56:42.093Z,11.40
2019-03-27T05:59:12.349Z,10.97
2019-03-27T06:01:42.671Z,11.47
2019-03-27T06:04:12.927Z,12.03
2019-03-27T06:06:43.211Z,12.67
2019-03-27T06:09:13.498Z,11.30
2019-03-27T06:11:43.750Z,9.93
2019-03-27T06:14:14.114Z,11.07
2019-03-27T06:16:44.365Z,10.73
2019-03-27T06:19:14.639Z,10.33
2019-03-27T06:21:45.259Z,10.93
2019-03-27T06:24:15.547Z,11.00
2019-03-27T06:26:45.799Z,10.40
2019-03-27T06:29:16.136Z,9.93
2019-03-27T06:31:46.410Z,9.70
2019-03-27T06:34:16.658Z,9.43
2019-03-27T06:36:47.017Z,9.80
2019-03-27T06:39:17.267Z,9.13
2019-03-27T06:41:47.528Z,9.03
2019-03-27T06:44:17.805Z,9.10
2019-03-27T06:46:48.079Z,8.47
2019-03-27T06:49:18.336Z,8.57
2019-03-27T06:51:48.617Z,8.57
2019-03-27T06:54:18.863Z,8.03
2019-03-27T06:56:49.125Z,8.20
2019-03-27T06:59:19.405Z,6.83
2019-03-27T07:01:49.650Z,7.07
2019-03-27T07:04:19.934Z,6.33
2019-03-27T07:06:50.205Z,6.47
2019-03-27T07:09:20.553Z,6.73
2019-03-27T07:11:50.801Z,6.63
2019-03-27T07:14:21.053Z,6.50
2019-03-27T07:16:51.352Z,6.43
2019-03-27T07:19:21.593Z,7.93
2019-03-27T07:21:51.845Z,5.83
2019-03-27T07:24:22.128Z,6.23
2019-03-27T07:26:52.631Z,6.40
2019-03-27T07:29:22.880Z,5.83
2019-03-27T07:31:53.172Z,5.63
2019-03-27T07:34:23.449Z,6.10
2019-03-27T07:36:56.110Z,5.70
2019-03-27T07:39:25.625Z,4.97
2019-03-27T07:41:56.269Z,5.10
2019-03-27T07:44:26.517Z,5.07
2019-03-27T07:46:56.754Z,4.53
2019-03-27T07:49:26.996Z,4.83
2019-03-27T07:51:57.278Z,4.73
2019-03-27T07:54:28.091Z,4.70
2019-03-27T07:56:58.364Z,4.90
2019-03-27T07:59:28.888Z,5.30
2019-03-27T08:01:59.832Z,4.23
2019-03-27T08:04:30.083Z,4.87
2019-03-27T08:07:00.318Z,4.90
2019-03-27T08:09:30.594Z,4.73
2019-03-27T08:12:01.204Z,5.77
2019-03-27T08:14:31.446Z,4.90
2019-03-27T08:17:01.766Z,4.83
2019-03-27T08:19:32.046Z,5.20
2019-03-27T08:22:02.290Z,5.20
2019-03-27T08:24:32.566Z,4.90
2019-03-27T08:27:02.832Z,5.83
2019-03-27T08:29:33.069Z,5.90
2019-03-27T08:32:03.342Z,4.93
2019-03-27T08:34:33.877Z,4.73
2019-03-27T08:37:04.152Z,4.63
2019-03-27T08:39:34.408Z,4.80
2019-03-27T08:42:04.677Z,4.53
2019-03-27T08:44:34.916Z,4.87
2019-03-27T08:47:05.190Z,4.60
2019-03-27T08:49:35.460Z,5.03
2019-03-27T08:52:05.711Z,5.37
2019-03-27T08:54:35.953Z,4.63
2019-03-27T08:57:06.205Z,5.07
2019-03-27T08:59:36.456Z,5.47
2019-03-27T09:02:06.735Z,5.83
2019-03-27T09:04:37.015Z,5.97
2019-03-27T09:07:07.313Z,5.87
2019-03-27T09:09:37.569Z,5.70
2019-03-27T09:12:07.845Z,6.10
2019-03-27T09:14:38.085Z,5.23
2019-03-27T09:17:08.355Z,5.87
2019-03-27T09:19:38.632Z,5.37
2019-03-27T09:22:08.856Z,5.90
2019-03-27T09:24:39.105Z,5.30
2019-03-27T09:27:09.420Z,5.67
2019-03-27T09:29:39.674Z,5.07
2019-03-27T09:32:09.923Z,5.80
2019-03-27T09:34:40.167Z,5.30
2019-03-27T09:37:10.412Z,5.70
2019-03-27T09:39:40.761Z,5.40
2019-03-27T09:42:11.062Z,5.73
2019-03-27T09:44:41.326Z,6.40
2019-03-27T09:47:11.595Z,5.47
2019-03-27T09:49:49.627Z,6.13
2019-03-27T09:52:13.789Z,5.80
2019-03-27T09:54:44.037Z,6.97
2019-03-27T09:57:14.288Z,5.33
2019-03-27T09:59:44.524Z,5.87
2019-03-27T10:02:14.806Z,6.67
2019-03-27T10:04:45.047Z,5.87
2019-03-27T10:07:15.296Z,5.47
2019-03-27T10:09:45.569Z,6.07
2019-03-27T10:12:15.809Z,6.77
2019-03-27T10:14:47.737Z,5.97
2019-03-27T10:17:18.029Z,6.30
2019-03-27T10:19:48.264Z,5.90
2019-03-27T10:22:18.542Z,6.23
2019-03-27T10:24:48.811Z,5.70
2019-03-27T10:27:19.082Z,5.63
2019-03-27T10:29:49.356Z,5.60
2019-03-27T10:32:19.599Z,6.20
2019-03-27T10:34:49.890Z,5.37
2019-03-27T10:37:20.168Z,5.10
2019-03-27T10:39:50.438Z,5.30
2019-03-27T10:42:20.755Z,5.33
2019-03-27T10:44:51.006Z,4.63
2019-03-27T10:47:21.333Z,4.93
2019-03-27T10:49:51.616Z,4.47
2019-03-27T10:52:21.897Z,3.93
2019-03-27T10:54:52.177Z,5.13
2019-03-27T10:57:22.427Z,4.83
2019-03-27T10:59:52.707Z,4.87
2019-03-27T11:02:23.025Z,5.63
2019-03-27T11:04:53.278Z,5.03
2019-03-27T11:07:23.543Z,4.63
2019-03-27T11:09:53.988Z,4.27
2019-03-27T11:12:24.230Z,4.53
2019-03-27T11:14:54.964Z,4.23
2019-03-27T11:17:25.232Z,4.90
2019-03-27T11:19:55.488Z,4.60
2019-03-27T11:22:25.784Z,4.43
2019-03-27T11:24:56.063Z,4.40
2019-03-27T11:27:26.340Z,4.07
2019-03-27T11:29:56.622Z,4.53
2019-03-27T11:32:26.866Z,4.80
2019-03-27T11:34:57.151Z,3.93
2019-03-27T11:37:27.398Z,4.90
2019-03-27T11:39:57.750Z,4.33
2019-03-27T11:42:28.029Z,4.80
2019-03-27T11:44:58.278Z,4.30
2019-03-27T11:47:28.562Z,4.70
2019-03-27T11:49:58.813Z,4.93
2019-03-27T11:52:29.833Z,4.47
2019-03-27T11:55:00.476Z,4.97
2019-03-27T11:57:30.738Z,4.93
2019-03-27T12:00:01.392Z,4.73
2019-03-27T12:02:32.003Z,5.20
2019-03-27T12:05:02.282Z,5.37
2019-03-27T12:07:32.526Z,4.90
2019-03-27T12:10:04.924Z,4.43
2019-03-27T12:12:35.270Z,5.03
2019-03-27T12:15:06.991Z,4.83
2019-03-27T12:17:37.235Z,4.93
2019-03-27T12:20:08.091Z,6.00
2019-03-27T12:22:38.372Z,5.87
2019-03-27T12:25:08.663Z,5.40
2019-03-27T12:27:38.937Z,5.47
2019-03-27T12:30:09.215Z,5.40
2019-03-27T12:32:39.467Z,5.90
2019-03-27T12:35:09.727Z,4.70
2019-03-27T12:37:39.985Z,5.50
2019-03-27T12:40:11.789Z,4.80
2019-03-27T12:42:42.449Z,5.40
2019-03-27T12:45:12.738Z,5.70
2019-03-27T12:47:43.009Z,4.33
2019-03-27T12:50:14.175Z,5.47
2019-03-27T12:52:44.454Z,4.73
2019-03-27T12:55:14.735Z,4.53
2019-03-27T12:57:45.025Z,4.97
2019-03-27T13:00:15.276Z,4.10
2019-03-27T13:02:45.540Z,4.40
2019-03-27T13:05:15.797Z,4.00
2019-03-27T13:07:50.198Z,4.43
2019-03-27T13:10:18.062Z,4.00
2019-03-27T13:12:48.349Z,4.30
2019-03-27T13:15:18.597Z,4.00
2019-03-27T13:17:48.882Z,4.10
2019-03-27T13:20:20.798Z,4.93
2019-03-27T13:22:51.077Z,4.33
2019-03-27T13:25:21.360Z,4.13
2019-03-27T13:27:51.634Z,3.63
2019-03-27T13:30:21.883Z,3.67
2019-03-27T13:32:52.236Z,3.77
2019-03-27T13:35:22.515Z,4.17
2019-03-27T13:37:52.852Z,4.53
2019-03-27T13:40:23.178Z,4.10
2019-03-27T13:42:53.594Z,3.83
2019-03-27T13:45:23.885Z,3.13
2019-03-27T13:47:54.160Z,2.40
2019-03-27T13:50:25.251Z,2.30
2019-03-27T13:52:55.503Z,2.40
2019-03-27T13:55:25.769Z,2.60
2019-03-27T13:57:56.032Z,2.87
2019-03-27T14:00:26.272Z,2.90
2019-03-27T14:02:56.607Z,3.10
2019-03-27T14:05:26.842Z,3.30
2019-03-27T14:07:57.520Z,3.33
2019-03-27T14:10:27.833Z,3.77
2019-03-27T14:12:58.395Z,3.73
2019-03-27T14:15:28.669Z,3.80
2019-03-27T14:17:58.945Z,3.80
2019-03-27T14:20:29.446Z,3.50
2019-03-27T14:22:59.704Z,3.60
2019-03-27T14:25:29.987Z,3.43
2019-03-27T14:28:00.335Z,3.90
2019-03-27T14:30:50.054Z,3.40
2019-03-27T14:33:20.897Z,3.97
2019-03-27T14:35:51.223Z,3.80
2019-03-27T14:38:21.501Z,3.77
2019-03-27T14:40:51.748Z,4.20
2019-03-27T14:43:22.025Z,4.23
2019-03-27T14:45:52.321Z,3.90
2019-03-27T14:48:22.923Z,4.27
2019-03-27T14:50:53.422Z,4.47
2019-03-27T14:53:23.698Z,3.90
2019-03-27T14:55:53.974Z,3.77
2019-03-27T14:58:24.251Z,3.87
2019-03-27T15:00:54.531Z,3.87
2019-03-27T15:03:24.788Z,3.60
2019-03-27T15:05:55.139Z,4.10
2019-03-27T15:08:25.389Z,3.90
2019-03-27T15:10:55.666Z,3.83
2019-03-27T15:13:25.937Z,4.30
2019-03-27T15:15:56.181Z,4.07
2019-03-27T15:18:26.471Z,3.73
2019-03-27T15:20:56.717Z,4.57
2019-03-27T15:23:26.968Z,4.33
2019-03-27T15:25:57.253Z,4.90
2019-03-27T15:28:27.499Z,4.00
2019-03-27T15:30:58.048Z,4.30
2019-03-27T15:33:28.303Z,4.40
2019-03-27T15:35:58.849Z,4.17
2019-03-27T15:38:29.125Z,3.90
2019-03-27T15:40:59.374Z,4.83
2019-03-27T15:43:29.674Z,4.70
2019-03-27T15:45:59.943Z,4.00
2019-03-27T15:48:30.219Z,4.70
2019-03-27T15:51:00.473Z,4.60
2019-03-27T15:53:30.730Z,5.07
2019-03-27T15:56:00.986Z,5.13
2019-03-27T15:58:31.238Z,5.13
2019-03-27T16:01:01.514Z,5.20
2019-03-27T16:03:31.800Z,5.50
2019-03-27T16:06:02.042Z,5.63
2019-03-27T16:08:32.304Z,5.80
2019-03-27T16:11:02.842Z,5.60
2019-03-27T16:13:33.122Z,5.57
2019-03-27T16:16:03.366Z,5.30
2019-03-27T16:18:33.652Z,6.17
2019-03-27T16:21:03.935Z,5.77
2019-03-27T16:23:34.224Z,6.17
2019-03-27T16:26:04.467Z,6.70
2019-03-27T16:28:34.722Z,6.30
2019-03-27T16:31:04.971Z,6.27
2019-03-27T16:33:35.259Z,5.63
2019-03-27T16:36:05.534Z,7.80
2019-03-27T16:38:35.831Z,7.80
2019-03-27T16:41:06.076Z,5.83
2019-03-27T16:43:36.323Z,6.23
2019-03-27T16:46:06.576Z,5.90
2019-03-27T16:48:36.853Z,5.67
2019-03-27T16:51:07.095Z,6.17
2019-03-27T16:53:37.339Z,6.50
2019-03-27T16:56:08.085Z,6.60
2019-03-27T16:58:38.347Z,5.30
2019-03-27T17:01:08.619Z,6.20
2019-03-27T17:03:38.845Z,5.40
2019-03-27T17:06:09.128Z,6.30
2019-03-27T17:08:39.397Z,5.83
2019-03-27T17:11:09.628Z,5.97
2019-03-27T17:13:40.452Z,5.87
2019-03-27T17:16:10.990Z,6.47
2019-03-27T17:18:41.231Z,5.47
2019-03-27T17:21:11.716Z,5.40
2019-03-27T17:23:41.958Z,5.27
2019-03-27T17:26:12.227Z,5.83
2019-03-27T17:28:42.766Z,5.77
2019-03-27T17:31:13.032Z,5.30
2019-03-27T17:33:43.296Z,5.50
2019-03-27T17:36:13.624Z,5.80
2019-03-27T17:38:44.078Z,5.37
2019-03-27T17:41:14.428Z,5.57
2019-03-27T17:43:46.488Z,5.00
2019-03-27T17:46:17.046Z,6.20
2019-03-27T17:48:47.504Z,4.80
2019-03-27T17:51:17.841Z,4.50
2019-03-27T17:53:48.178Z,4.63
2019-03-27T17:56:18.672Z,4.20
2019-03-27T17:58:49.048Z,4.97
2019-03-27T18:01:19.297Z,4.80
2019-03-27T18:03:49.625Z,4.43
2019-03-27T18:06:19.865Z,4.67
2019-03-27T18:08:50.110Z,4.73
2019-03-27T18:11:20.417Z,4.30
2019-03-27T18:13:50.676Z,4.43
2019-03-27T18:16:20.942Z,4.73
2019-03-27T18:18:51.178Z,4.87
2019-03-27T18:21:21.856Z,4.27
2019-03-27T18:23:52.134Z,4.90
2019-03-27T18:26:22.370Z,4.40
2019-03-27T18:28:52.616Z,5.37
2019-03-27T18:31:22.891Z,4.27
2019-03-27T18:33:53.166Z,4.93
2019-03-27T18:36:23.404Z,5.13
2019-03-27T18:38:53.743Z,5.20
2019-03-27T18:41:24.483Z,5.00
2019-03-27T18:43:54.802Z,4.63
2019-03-27T18:46:25.181Z,4.80
2019-03-27T18:48:55.627Z,5.17
2019-03-27T18:51:26.119Z,5.30
2019-03-27T18:53:59.771Z,6.00
2019-03-27T18:56:30.225Z,5.87
2019-03-27T18:59:00.733Z,6.17
2019-03-27T19:01:30.987Z,5.60
2019-03-27T19:04:01.229Z,5.87
2019-03-27T19:06:31.920Z,6.47
2019-03-27T19:09:02.707Z,6.87
2019-03-27T19:11:32.961Z,7.17
2019-03-27T19:14:03.216Z,6.93
2019-03-27T19:16:33.478Z,6.27
2019-03-27T19:19:03.709Z,7.17
2019-03-27T19:21:33.991Z,6.57
2019-03-27T19:24:14.842Z,6.73
2019-03-27T19:26:36.209Z,7.03
2019-03-27T19:29:06.457Z,7.23
2019-03-27T19:31:36.769Z,7.50
2019-03-27T19:34:07.281Z,7.37
2019-03-27T19:36:37.590Z,7.40
2019-03-27T19:39:09.742Z,7.27
2019-03-27T19:41:40.022Z,7.90
2019-03-27T19:44:10.350Z,8.13
2019-03-27T19:46:40.705Z,7.07
2019-03-27T19:49:10.988Z,8.03
2019-03-27T19:51:41.265Z,7.83
2019-03-27T19:54:11.543Z,7.70
2019-03-27T19:56:41.790Z,8.70
2019-03-27T19:59:12.076Z,8.83
2019-03-27T20:01:42.352Z,9.97
2019-03-27T20:04:15.713Z,9.60
2019-03-27T20:06:45.978Z,11.07
2019-03-27T20:09:16.736Z,10.73
2019-03-27T20:11:47.135Z,10.80
2019-03-27T20:14:17.456Z,11.50
2019-03-27T20:16:47.809Z,11.17
2019-03-27T20:19:18.100Z,12.67
2019-03-27T20:21:48.339Z,12.60
2019-03-27T20:24:18.633Z,13.43
2019-03-27T20:26:48.887Z,13.53
2019-03-27T20:29:19.174Z,14.57
2019-03-27T20:31:49.458Z,12.90
2019-03-27T20:34:19.746Z,13.57
2019-03-27T20:36:50.033Z,13.07
2019-03-27T20:39:20.286Z,14.63
2019-03-27T20:41:50.534Z,15.50
2019-03-27T20:44:20.798Z,14.70
2019-03-27T20:46:51.069Z,16.00
2019-03-27T20:49:21.320Z,17.37
2019-03-27T20:51:54.956Z,17.23
2019-03-27T20:54:25.389Z,17.40
2019-03-27T20:56:55.773Z,16.83
2019-03-27T20:59:25.999Z,18.80
2019-03-27T21:01:56.663Z,21.63
2019-03-27T21:04:27.381Z,21.53
2019-03-27T21:06:57.662Z,21.93
2019-03-27T21:09:27.956Z,21.63
2019-03-27T21:11:58.237Z,22.53
2019-03-27T21:14:28.508Z,22.10
2019-03-27T21:16:58.789Z,24.47
2019-03-27T21:19:29.076Z,23.07
2019-03-27T21:21:59.358Z,21.73
2019-03-27T21:24:29.619Z,22.17
2019-03-27T21:26:59.915Z,22.57
2019-03-27T21:29:30.383Z,21.47
2019-03-27T21:32:00.701Z,23.10
2019-03-27T21:34:30.974Z,23.07
2019-03-27T21:37:01.256Z,22.80
2019-03-27T21:39:31.550Z,23.87
2019-03-27T21:42:02.059Z,26.33
2019-03-27T21:44:32.309Z,24.50
2019-03-27T21:47:02.563Z,23.47
2019-03-27T21:49:32.844Z,21.20
2019-03-27T21:52:03.139Z,22.30
2019-03-27T21:54:33.383Z,22.87
2019-03-27T21:57:03.646Z,21.67
2019-03-27T21:59:33.930Z,21.97
2019-03-27T22:02:05.926Z,20.43
2019-03-27T22:04:36.174Z,23.20
2019-03-27T22:07:06.431Z,20.87
2019-03-27T22:09:36.687Z,22.23
2019-03-27T22:12:06.971Z,22.07
2019-03-27T22:14:37.229Z,20.90
2019-03-27T22:17:07.519Z,21.07
2019-03-27T22:19:38.397Z,20.50
2019-03-27T22:22:08.683Z,21.00
2019-03-27T22:24:38.973Z,22.40
2019-03-27T22:27:09.217Z,22.40
2019-03-27T22:29:39.509Z,22.67
2019-03-27T22:32:09.753Z,22.17
2019-03-27T22:34:40.003Z,23.60
2019-03-27T22:37:10.264Z,22.73
2019-03-27T22:39:40.554Z,22.90
2019-03-27T22:42:10.837Z,21.33
2019-03-27T22:44:41.135Z,21.80
2019-03-27T22:47:11.418Z,22.90
2019-03-27T22:49:41.879Z,20.60
2019-03-27T22:52:12.162Z,21.37
2019-03-27T22:54:42.423Z,19.87
2019-03-27T22:57:12.736Z,19.40
2019-03-27T22:59:43.030Z,19.10
2019-03-27T23:02:13.640Z,20.37
2019-03-27T23:04:43.913Z,19.23
2019-03-27T23:07:14.199Z,20.30
2019-03-27T23:09:44.450Z,20.90
2019-03-27T23:12:14.714Z,19.30
2019-03-27T23:14:45.001Z,19.73
2019-03-27T23:17:15.541Z,18.63
2019-03-27T23:19:45.888Z,18.90
2019-03-27T23:22:16.300Z,19.00
2019-03-27T23:24:46.575Z,18.50
2019-03-27T23:27:16.850Z,19.07
2019-03-27T23:29:47.107Z,19.20
2019-03-27T23:32:17.347Z,18.20
2019-03-27T23:34:47.610Z,17.70
2019-03-27T23:37:17.860Z,17.13
2019-03-27T23:39:48.144Z,18.00
2019-03-27T23:42:18.398Z,16.83
2019-03-27T23:44:48.684Z,18.23
2019-03-27T23:47:18.929Z,16.70
2019-03-27T23:49:49.181Z,15.83
2019-03-27T23:52:19.429Z,15.03
2019-03-27T23:54:49.795Z,14.93
2019-03-27T23:57:20.110Z,14.37
2019-03-27T23:59:50.405Z,15.50
